默认 日期 大小 文件数 浏览量 最新下载 xml
08 28磁力链接相关资源由用户搜索指令自动获取,结果来源于网络,本站不存储任何资料,亦不承担任何责任,请于24小时内删除,搜索到8779个磁力,显示前4000条数据,用时22ms。
    {"RARBG.txt": 30, "asstraffic.18.08.28.afrodite.mp4": 4273489027, "asstraffic.18.08.28.afrodite.nfo": 5179}
创建时间: 2018-12-06 03:29:23 大小:3.98 GB 文件数量:3 热度:25 最近下载:2025-04-04 02:30:02
    {"[国模私拍] 2012.08.28 美女茜茜器 ...
创建时间: 2018-12-06 05:08:56 大小:356.3 MB 文件数量:755 热度:346 最近下载:2025-10-12 04:39:02
    {"Sample": {"xangels.17.08.28.michelle.can-sample.mp4": 68302151}, "xangels.17.08.28.michelle.can.mp4": 1408088384, "xangels.17.08.28.michelle.can.nfo": 5273}
创建时间: 2018-12-06 08:00:31 大小:1.38 GB 文件数量:3 热度:23 最近下载:2025-10-05 06:18:02
    {"file_id.diz": 77, "gagball.nfo": 244, "RARBG.com.txt": 34, "lindsey301.jpg": 3586808, "lindsey302.jpg": 3548780, "lindsey303.jpg": 3546501, "lindsey304.jpg": 3881266, "lindsey305.jpg": 3376369, "lindsey306.jpg": 3136603, "lindsey307.jpg": 3368509, " ...
创建时间: 2018-12-06 08:00:48 大小:279.78 MB 文件数量:78 热度:14 最近下载:2024-10-02 23:35:02
    {"Download-Safely-using-FiveStarVPN.com.txt": 91, "Torrent-Downloaded-from-ExtraTorrent.cc.txt": 176, "colette.16.08.28.tiffany.watson.black.velvet.cupcake[N1C].mp4": 711885609}
创建时间: 2018-12-06 08:55:29 大小:678.91 MB 文件数量:3 热度:13 最近下载:2024-09-21 02:37:01
    {"PWG.2009.08.28.Speed.of.Sound.DVDRip.x264-QTL.mp4": 1297507675}
创建时间: 2018-12-06 09:28:29 大小:1.21 GB 文件数量:1 热度:10 最近下载:2025-06-07 19:51:01
    ... .org .txt": 691, "conan.2018.08.28.kristin.chenoweth.repack.web.h264 ... -tbs.mkv": 816600826, "conan.2018.08.28.kristin.chenoweth.repack.web.h264 ...
创建时间: 2018-12-06 13:36:59 大小:780.37 MB 文件数量:7 热度:12 最近下载:2025-03-16 10:59:02
    {"RARBG.txt": 30, "DeviantAss.18.08.28.Alexis.Crystal.Honesty.XXX.SD.MP4-KLEENEX.mp4": 300495135}
创建时间: 2018-12-06 16:03:23 大小:286.57 MB 文件数量:2 热度:11 最近下载:2025-10-12 01:55:01
    {"RARBG.txt": 30, "hotties.18.08.28.lana.sins.les.nouveaux.romantiques.mp4": 2787024408, "hotties.18.08.28.lana.sins.les.nouveaux.romantiques.nfo": 5218}
创建时间: 2018-12-06 18:31:09 大小:2.6 GB 文件数量:3 热度:21 最近下载:2025-09-20 00:44:06
    {"RARBG.txt": 30, "ATKGirlfriends.18.08.28.Bella.Rose.XXX.SD.MP4-KLEENEX.mp4": 255085314}
创建时间: 2018-12-06 19:23:39 大小:243.27 MB 文件数量:2 热度:7 最近下载:2025-04-04 00:51:02
    {"RARBG.com.txt": 34, "asstraffic.14.08.28.anastasia.blonde.mp4": 4995751987}
创建时间: 2018-12-06 23:21:04 大小:4.65 GB 文件数量:2 热度:17 最近下载:2025-05-06 23:44:02
    {"file_id.diz": 76, "gagball.nfo": 242, "RARBG.com.txt": 34, "RARBG.COM_XXX_BANNER.jpg": 517081, "roxymendezit102813-set4_001.jpg": 1074129, "roxymendezit102813-set4_002.jpg": 799612, "roxymendezit102813-set4_003.jpg": 874644, "roxymendezit102813-set4_004. ...
创建时间: 2018-12-07 08:06:01 大小:103.52 MB 文件数量:124 热度:17 最近下载:2025-01-19 02:41:06
    {"bgb.18.08.28.ella.knox.make.me.wet[N1C].mp4": 1961290728}
创建时间: 2018-12-07 13:25:55 大小:1.83 GB 文件数量:1 热度:19 最近下载:2025-07-30 20:56:03
    {"Hide-Your-IP-using-FiveStarVPN.com.txt": 91, "Torrent-Downloaded-from-ExtraTorrent.cc.txt": 176, "tfcp.16.08.28.rachel.evans.and.yenna.some.outdoor.pissing.fun[N1C].mp4": 1251283469}
创建时间: 2018-12-07 19:02:54 大小:1.17 GB 文件数量:3 热度:16 最近下载:2024-08-23 01:16:02
    {"stepmomlessons.18.08.28.bambi.black.and.dana.dearmond.rose.petal.proposition[N1C].mp4": 1021108577}
创建时间: 2018-12-07 19:52:17 大小:973.81 MB 文件数量:1 热度:21 最近下载:2025-04-04 02:14:02
    {"RARBG.com.txt": 34, "GNDBondage.2014.08.28.I.Dont.Let.Anyone.Tie.Me.Up.On.The.First.Date.XXX.HR.MP4-hUSHhUSH.mp4": 410593880, "gndbondage.2014.08.28.i.dont.let.anyone.tie.me.up.on.the.first.date.xxx.hr.mp4-hushhush.nfo": 20890}
创建时间: 2018-12-07 19:59:54 大小:391.59 MB 文件数量:3 热度:17 最近下载:2024-08-31 12:44:01
    {"payiso.nfo": 3565, "file_id.diz": 881, "img_0001.jpg": 429060, "img_0002.jpg": 397712, "img_0003.jpg": 431407, "img_0004.jpg": 412263, "img_0005.jpg": 428025, "img_0006.jpg": 452748, "img_0007.jpg": 392529, "img_0008.jpg": 410895, "img_0009.jpg": 435678, ...
创建时间: 2018-12-07 20:01:46 大小:54.06 MB 文件数量:132 热度:11 最近下载:2024-12-17 22:14:03
    {"0001.jpg": 303052, "0002.jpg": 245921, "0003.jpg": 251038, "0004.jpg": 296773, "0005.jpg": 257988, "0006.jpg": 260488, "0007.jpg": 312712, "0008.jpg": 266017, "0009.jpg": 235816, "0010.jpg": 304041, "0011.jpg": 329590, "0012.jpg": 316196, "0013.jpg": ...
创建时间: 2018-12-07 20:38:00 大小:157.78 MB 文件数量:631 热度:24 最近下载:2025-04-13 13:22:03
    {"Sample": {"i.cdp120828awyb.s.mp4": 23832663}, "RARBG.com.txt": 34, "i.cdp120828awyb.mp4": 832962802, "i.cdp120828awyb.nfo": 2507}
创建时间: 2018-12-08 01:52:06 大小:817.11 MB 文件数量:4 热度:14 最近下载:2025-03-09 15:44:04
    {"RARBG.nfo": 29, "grandmams.18.08.28.lusty.grandma.fucked.by.young.call.boy.mp4": 226490485}
创建时间: 2018-12-08 03:40:00 大小:216 MB 文件数量:2 热度:20 最近下载:2025-07-30 02:56:03